Monemvasia — A8XA3 — position and weather

sailwx.info

Track history (hours):
 
Tides and Currents Weather Stations Pressure Air Temp Water Temp Dewpoint Dewpoint Depression Visibility Wind Speed Wind Dir Waves Ship Positions

Monemvasia

Last reported at 2018-Jun-16 03:05 UTC. Time now 2018-Jun-23 19:10 UTC.
Position N 27°34' W 014°05'.

Length 207 m; draft 10.7 m.

Type: Ship (hazmat cat A). MMSI: 636017405.

Date/timePositionNaut miles runAvg speedWind from/ knotsBaromVisibWave heightAir tempDewpointWater temp
2018-Jun-16 03:05N 27°34' W 014°05'112.5
2018-Jun-16 03:00N 27°34' W 014°04'712.5
2018-Jun-16 02:27N 27°40' W 013°60'512.2
2018-Jun-16 02:00N 27°44' W 013°56'2412.3
2018-Jun-16 00:05N 28°03' W 013°40'111.9
2018-Jun-16 00:00N 28°04' W 013°40'3212.0
2018-Jun-15 21:20N 28°31' W 013°20'512.4
2018-Jun-15 20:58N 28°35' W 013°18'612.2
2018-Jun-15 20:26N 28°41' W 013°14'812.3
2018-Jun-15 19:47N 28°47' W 013°09'512.3
2018-Jun-15 19:24N 28°51' W 013°06'512.3
2018-Jun-15 19:00N 28°56' W 013°03'56712.1
2018-Jun-13 20:15N 35°57' W 005°35'210.4
2018-Jun-13 20:00N 35°59' W 005°32'4 9.0
2018-Jun-13 19:30N 36°01' W 005°27'4 7.3
2018-Jun-13 19:00N 36°03' W 005°23'610.7
2018-Jun-13 18:26N 36°09' W 005°25'1 0.2
2018-Jun-13 12:43N 36°08' W 005°26'0 0.0
2018-Jun-13 12:25N 36°08' W 005°26'0 0.0
2018-Jun-13 11:58N 36°08' W 005°26'0 0.0
2018-Jun-13 11:04N 36°08' W 005°26'0 0.0
2018-Jun-13 10:52N 36°08' W 005°26'0 0.0
2018-Jun-13 10:28N 36°08' W 005°26'0 0.0
2018-Jun-13 09:46N 36°08' W 005°26'0 0.0
2018-Jun-13 06:04N 36°08' W 005°26'0 0.0
2018-Jun-13 05:58N 36°08' W 005°26'0 0.0
2018-Jun-13 05:28N 36°08' W 005°26'0 0.0
2018-Jun-13 04:58N 36°08' W 005°26'0 0.0
2018-Jun-13 04:28N 36°08' W 005°26'0 0.0
2018-Jun-13 03:52N 36°08' W 005°26'0 0.0
2018-Jun-13 03:28N 36°08' W 005°26'0 0.0
2018-Jun-13 02:58N 36°08' W 005°26'0 0.0
2018-Jun-13 02:28N 36°08' W 005°26'0 0.1
2018-Jun-13 02:00N 36°08' W 005°26'2 3.7
2018-Jun-13 01:31N 36°08' W 005°24'3 5.5
2018-Jun-13 01:00N 36°05' W 005°23'5 8.1
2018-Jun-13 00:27N 36°04' W 005°18'4 8.5
2018-Jun-13 00:00N 36°05' W 005°13'8 2.5
2018-Jun-12 20:44N 36°06' W 005°03'4 9.0
2018-Jun-12 20:16N 36°06' W 004°58'10 1.8
2018-Jun-12 14:35N 36°04' W 005°10'113.6
2018-Jun-12 14:30N 36°04' W 005°11'713.8
2018-Jun-12 14:00N 36°00' W 005°18'714.5
2018-Jun-12 13:30N 35°58' W 005°27'  
2018-Jun-08 23:22N 38°50' W 010°08'811.9
2018-Jun-08 22:42N 38°57' W 010°08'511.9
2018-Jun-08 22:16N 39°03' W 010°08'  
2018-Jun-06 16:35N 49°22' W 004°41'112.8
2018-Jun-06 16:30N 49°22' W 004°40'812.9
2018-Jun-06 15:52N 49°26' W 004°29'712.9
2018-Jun-06 15:20N 49°30' W 004°20'712.7
2018-Jun-06 14:48N 49°33' W 004°11'412.8
2018-Jun-06 14:30N 49°35' W 004°06'1012.7
2018-Jun-06 13:42N 49°40' W 003°52'512.8
2018-Jun-06 13:21N 49°42' W 003°46'512.7
2018-Jun-06 12:59N 49°45' W 003°40'612.6
2018-Jun-06 12:31N 49°48' W 003°32'612.8
2018-Jun-06 12:01N 49°51' W 003°24'612.5
2018-Jun-06 11:30N 49°54' W 003°15'612.5
2018-Jun-06 11:01N 49°58' W 003°07'612.5
2018-Jun-06 10:31N 50°00' W 002°58'612.8
2018-Jun-06 10:01N 50°02' W 002°48'612.6
2018-Jun-06 09:30N 50°04' W 002°39'612.4
2018-Jun-06 08:59N 50°05' W 002°29'712.8
2018-Jun-06 08:26N 50°07' W 002°19'612.5
2018-Jun-06 07:56N 50°09' W 002°09'613.0
2018-Jun-06 07:30N 50°10' W 002°01'913.9
2018-Jun-06 06:50N 50°13' W 001°47'713.9
2018-Jun-06 06:19N 50°15' W 001°36'413.9
2018-Jun-06 06:00N 50°16' W 001°30'714.6
2018-Jun-06 05:30N 50°18' W 001°18'714.6
2018-Jun-06 05:00N 50°19' W 001°07'814.0
2018-Jun-06 04:25N 50°21' W 000°55'813.3
2018-Jun-06 03:50N 50°23' W 000°43'412.7
2018-Jun-06 03:30N 50°24' W 000°37'  
Track history (hours):
 
Tides and Currents Weather Stations Pressure Air Temp Water Temp Dewpoint Dewpoint Depression Visibility Wind Speed Wind Dir Waves Ship Positions

Monemvasia

Last reported at 2018-Jun-16 03:05 UTC. Time now 2018-Jun-23 19:10 UTC.
Position N 27°34' W 014°05'.

Length 207 m; draft 10.7 m.

Type: Ship (hazmat cat A). MMSI: 636017405.

Date/timePositionNaut miles runAvg speedWind from/ knotsBaromVisibWave heightAir tempDewpointWater temp
2018-Jun-16 03:05N 27°34' W 014°05'112.5
2018-Jun-16 03:00N 27°34' W 014°04'712.5
2018-Jun-16 02:27N 27°40' W 013°60'512.2
2018-Jun-16 02:00N 27°44' W 013°56'2412.3
2018-Jun-16 00:05N 28°03' W 013°40'111.9
2018-Jun-16 00:00N 28°04' W 013°40'3212.0
2018-Jun-15 21:20N 28°31' W 013°20'512.4
2018-Jun-15 20:58N 28°35' W 013°18'612.2
2018-Jun-15 20:26N 28°41' W 013°14'812.3
2018-Jun-15 19:47N 28°47' W 013°09'512.3
2018-Jun-15 19:24N 28°51' W 013°06'512.3
2018-Jun-15 19:00N 28°56' W 013°03'56712.1
2018-Jun-13 20:15N 35°57' W 005°35'210.4
2018-Jun-13 20:00N 35°59' W 005°32'4 9.0
2018-Jun-13 19:30N 36°01' W 005°27'4 7.3
2018-Jun-13 19:00N 36°03' W 005°23'610.7
2018-Jun-13 18:26N 36°09' W 005°25'1 0.2
2018-Jun-13 12:43N 36°08' W 005°26'0 0.0
2018-Jun-13 12:25N 36°08' W 005°26'0 0.0
2018-Jun-13 11:58N 36°08' W 005°26'0 0.0
2018-Jun-13 11:04N 36°08' W 005°26'0 0.0
2018-Jun-13 10:52N 36°08' W 005°26'0 0.0
2018-Jun-13 10:28N 36°08' W 005°26'0 0.0
2018-Jun-13 09:46N 36°08' W 005°26'0 0.0
2018-Jun-13 06:04N 36°08' W 005°26'0 0.0
2018-Jun-13 05:58N 36°08' W 005°26'0 0.0
2018-Jun-13 05:28N 36°08' W 005°26'0 0.0
2018-Jun-13 04:58N 36°08' W 005°26'0 0.0
2018-Jun-13 04:28N 36°08' W 005°26'0 0.0
2018-Jun-13 03:52N 36°08' W 005°26'0 0.0
2018-Jun-13 03:28N 36°08' W 005°26'0 0.0
2018-Jun-13 02:58N 36°08' W 005°26'0 0.0
2018-Jun-13 02:28N 36°08' W 005°26'0 0.1
2018-Jun-13 02:00N 36°08' W 005°26'2 3.7
2018-Jun-13 01:31N 36°08' W 005°24'3 5.5
2018-Jun-13 01:00N 36°05' W 005°23'5 8.1
2018-Jun-13 00:27N 36°04' W 005°18'4 8.5
2018-Jun-13 00:00N 36°05' W 005°13'8 2.5
2018-Jun-12 20:44N 36°06' W 005°03'4 9.0
2018-Jun-12 20:16N 36°06' W 004°58'10 1.8
2018-Jun-12 14:35N 36°04' W 005°10'113.6
2018-Jun-12 14:30N 36°04' W 005°11'713.8
2018-Jun-12 14:00N 36°00' W 005°18'714.5
2018-Jun-12 13:30N 35°58' W 005°27'  
2018-Jun-08 23:22N 38°50' W 010°08'811.9
2018-Jun-08 22:42N 38°57' W 010°08'511.9
2018-Jun-08 22:16N 39°03' W 010°08'  
2018-Jun-06 16:35N 49°22' W 004°41'112.8
2018-Jun-06 16:30N 49°22' W 004°40'812.9
2018-Jun-06 15:52N 49°26' W 004°29'712.9
2018-Jun-06 15:20N 49°30' W 004°20'712.7
2018-Jun-06 14:48N 49°33' W 004°11'412.8
2018-Jun-06 14:30N 49°35' W 004°06'1012.7
2018-Jun-06 13:42N 49°40' W 003°52'512.8
2018-Jun-06 13:21N 49°42' W 003°46'512.7
2018-Jun-06 12:59N 49°45' W 003°40'612.6
2018-Jun-06 12:31N 49°48' W 003°32'612.8
2018-Jun-06 12:01N 49°51' W 003°24'612.5
2018-Jun-06 11:30N 49°54' W 003°15'612.5
2018-Jun-06 11:01N 49°58' W 003°07'612.5
2018-Jun-06 10:31N 50°00' W 002°58'612.8
2018-Jun-06 10:01N 50°02' W 002°48'612.6
2018-Jun-06 09:30N 50°04' W 002°39'612.4
2018-Jun-06 08:59N 50°05' W 002°29'712.8
2018-Jun-06 08:26N 50°07' W 002°19'612.5
2018-Jun-06 07:56N 50°09' W 002°09'613.0
2018-Jun-06 07:30N 50°10' W 002°01'913.9
2018-Jun-06 06:50N 50°13' W 001°47'713.9
2018-Jun-06 06:19N 50°15' W 001°36'413.9
2018-Jun-06 06:00N 50°16' W 001°30'714.6
2018-Jun-06 05:30N 50°18' W 001°18'714.6
2018-Jun-06 05:00N 50°19' W 001°07'814.0
2018-Jun-06 04:25N 50°21' W 000°55'813.3
2018-Jun-06 03:50N 50°23' W 000°43'412.7
2018-Jun-06 03:30N 50°24' W 000°37'  

Dump ship's entire track history